sensor_id;sensor_type;location;lat;lon;timestamp;temperature;humidity
25346;DHT22;13300;51.032;3.710;2024-01-30T00:01:49;11.50;99.90
25346;DHT22;13300;51.032;3.710;2024-01-30T00:04:15;11.50;99.90
25346;DHT22;13300;51.032;3.710;2024-01-30T00:06:42;11.50;99.90
25346;DHT22;13300;51.032;3.710;2024-01-30T00:09:08;11.60;99.90
25346;DHT22;13300;51.032;3.710;2024-01-30T00:11:34;11.60;99.90
25346;DHT22;13300;51.032;3.710;2024-01-30T00:14:00;11.80;99.90
25346;DHT22;13300;51.032;3.710;2024-01-30T00:16:27;11.70;99.90
25346;DHT22;13300;51.032;3.710;2024-01-30T00:18:53;11.70;99.90
25346;DHT22;13300;51.032;3.710;2024-01-30T00:21:20;11.60;99.90
25346;DHT22;13300;51.032;3.710;2024-01-30T00:23:46;11.60;99.90
25346;DHT22;13300;51.032;3.710;2024-01-30T00:26:12;11.60;99.90
25346;DHT22;13300;51.032;3.710;2024-01-30T00:28:38;11.60;99.90
25346;DHT22;13300;51.032;3.710;2024-01-30T00:31:04;11.50;99.90
25346;DHT22;13300;51.032;3.710;2024-01-30T00:33:30;11.50;99.90
25346;DHT22;13300;51.032;3.710;2024-01-30T00:35:56;11.50;99.90
25346;DHT22;13300;51.032;3.710;2024-01-30T00:38:22;11.50;99.90
25346;DHT22;13300;51.032;3.710;2024-01-30T00:40:48;11.60;99.90
25346;DHT22;13300;51.032;3.710;2024-01-30T00:43:14;11.50;99.90
25346;DHT22;13300;51.032;3.710;2024-01-30T00:45:39;11.50;99.90
25346;DHT22;13300;51.032;3.710;2024-01-30T00:48:05;11.60;99.90
25346;DHT22;13300;51.032;3.710;2024-01-30T00:50:31;11.50;99.90
25346;DHT22;13300;51.032;3.710;2024-01-30T00:52:57;11.50;99.90
25346;DHT22;13300;51.032;3.710;2024-01-30T00:55:22;11.50;99.90
25346;DHT22;13300;51.032;3.710;2024-01-30T00:57:48;11.40;99.90
25346;DHT22;13300;51.032;3.710;2024-01-30T01:00:14;11.40;99.90
25346;DHT22;13300;51.032;3.710;2024-01-30T01:02:43;11.40;99.90
25346;DHT22;13300;51.032;3.710;2024-01-30T01:05:09;11.50;99.90
25346;DHT22;13300;51.032;3.710;2024-01-30T01:07:35;11.50;99.90
25346;DHT22;13300;51.032;3.710;2024-01-30T01:10:01;11.40;99.90
25346;DHT22;13300;51.032;3.710;2024-01-30T01:12:28;11.40;99.90
25346;DHT22;13300;51.032;3.710;2024-01-30T01:14:53;11.50;99.90
25346;DHT22;13300;51.032;3.710;2024-01-30T01:17:19;11.50;99.90
25346;DHT22;13300;51.032;3.710;2024-01-30T01:19:45;11.40;99.90
25346;DHT22;13300;51.032;3.710;2024-01-30T01:22:11;11.40;99.90
25346;DHT22;13300;51.032;3.710;2024-01-30T01:24:36;11.30;99.90
25346;DHT22;13300;51.032;3.710;2024-01-30T01:27:02;11.40;99.90
25346;DHT22;13300;51.032;3.710;2024-01-30T01:29:28;11.30;99.90
25346;DHT22;13300;51.032;3.710;2024-01-30T01:31:58;11.30;99.90
25346;DHT22;13300;51.032;3.710;2024-01-30T01:34:24;11.30;99.90
25346;DHT22;13300;51.032;3.710;2024-01-30T01:36:50;11.30;99.90
25346;DHT22;13300;51.032;3.710;2024-01-30T01:39:17;11.40;99.90
25346;DHT22;13300;51.032;3.710;2024-01-30T01:41:43;11.40;99.90
25346;DHT22;13300;51.032;3.710;2024-01-30T01:44:09;11.50;99.90
25346;DHT22;13300;51.032;3.710;2024-01-30T01:46:35;11.50;99.90
25346;DHT22;13300;51.032;3.710;2024-01-30T01:49:03;11.50;99.90
25346;DHT22;13300;51.032;3.710;2024-01-30T01:51:31;11.50;99.90
25346;DHT22;13300;51.032;3.710;2024-01-30T01:54:00;11.40;99.90
25346;DHT22;13300;51.032;3.710;2024-01-30T01:56:27;11.40;99.90
25346;DHT22;13300;51.032;3.710;2024-01-30T01:58:55;11.40;99.90
25346;DHT22;13300;51.032;3.710;2024-01-30T02:01:21;11.40;99.90
25346;DHT22;13300;51.032;3.710;2024-01-30T02:03:48;11.40;99.90
25346;DHT22;13300;51.032;3.710;2024-01-30T02:06:15;11.50;99.90
25346;DHT22;13300;51.032;3.710;2024-01-30T02:08:42;11.50;99.90
25346;DHT22;13300;51.032;3.710;2024-01-30T02:11:08;11.60;99.90
25346;DHT22;13300;51.032;3.710;2024-01-30T02:13:35;11.60;99.90
25346;DHT22;13300;51.032;3.710;2024-01-30T02:16:01;11.60;99.90
25346;DHT22;13300;51.032;3.710;2024-01-30T02:18:27;11.60;99.90
25346;DHT22;13300;51.032;3.710;2024-01-30T02:20:54;11.60;99.90
25346;DHT22;13300;51.032;3.710;2024-01-30T02:23:23;11.60;99.90
25346;DHT22;13300;51.032;3.710;2024-01-30T02:25:50;11.50;99.90
25346;DHT22;13300;51.032;3.710;2024-01-30T02:28:18;11.40;99.90
25346;DHT22;13300;51.032;3.710;2024-01-30T02:30:45;11.60;99.90
25346;DHT22;13300;51.032;3.710;2024-01-30T02:33:11;11.60;99.90
25346;DHT22;13300;51.032;3.710;2024-01-30T02:35:37;11.60;99.90
25346;DHT22;13300;51.032;3.710;2024-01-30T02:38:03;11.60;99.90
25346;DHT22;13300;51.032;3.710;2024-01-30T02:40:28;11.60;99.90
25346;DHT22;13300;51.032;3.710;2024-01-30T02:42:54;11.60;99.90
25346;DHT22;13300;51.032;3.710;2024-01-30T02:45:20;11.50;99.90
25346;DHT22;13300;51.032;3.710;2024-01-30T02:47:46;11.60;99.90
25346;DHT22;13300;51.032;3.710;2024-01-30T02:50:12;11.60;99.90
25346;DHT22;13300;51.032;3.710;2024-01-30T02:52:38;11.60;99.90
25346;DHT22;13300;51.032;3.710;2024-01-30T02:55:04;11.60;99.90
25346;DHT22;13300;51.032;3.710;2024-01-30T02:57:30;11.60;99.90
25346;DHT22;13300;51.032;3.710;2024-01-30T02:59:56;11.60;99.90
25346;DHT22;13300;51.032;3.710;2024-01-30T03:02:21;11.60;99.90
25346;DHT22;13300;51.032;3.710;2024-01-30T03:04:47;11.70;99.90
25346;DHT22;13300;51.032;3.710;2024-01-30T03:07:13;11.80;99.90
25346;DHT22;13300;51.032;3.710;2024-01-30T03:09:38;11.80;99.90
25346;DHT22;13300;51.032;3.710;2024-01-30T03:12:04;11.80;99.90
25346;DHT22;13300;51.032;3.710;2024-01-30T03:14:31;11.80;99.90
25346;DHT22;13300;51.032;3.710;2024-01-30T03:16:57;11.70;99.90
25346;DHT22;13300;51.032;3.710;2024-01-30T03:19:23;11.50;99.90
25346;DHT22;13300;51.032;3.710;2024-01-30T03:21:49;11.50;99.90
25346;DHT22;13300;51.032;3.710;2024-01-30T03:24:15;11.50;99.90
25346;DHT22;13300;51.032;3.710;2024-01-30T03:26:40;11.40;99.90
25346;DHT22;13300;51.032;3.710;2024-01-30T03:29:06;11.50;99.90
25346;DHT22;13300;51.032;3.710;2024-01-30T03:31:32;11.50;99.90
25346;DHT22;13300;51.032;3.710;2024-01-30T03:33:57;11.50;99.90
25346;DHT22;13300;51.032;3.710;2024-01-30T03:36:23;11.40;99.90
25346;DHT22;13300;51.032;3.710;2024-01-30T03:38:49;11.40;99.90
25346;DHT22;13300;51.032;3.710;2024-01-30T03:41:15;11.40;99.90
25346;DHT22;13300;51.032;3.710;2024-01-30T03:43:40;11.50;99.90
25346;DHT22;13300;51.032;3.710;2024-01-30T03:46:06;11.40;99.90
25346;DHT22;13300;51.032;3.710;2024-01-30T03:48:32;11.40;99.90
25346;DHT22;13300;51.032;3.710;2024-01-30T03:50:58;11.30;99.90
25346;DHT22;13300;51.032;3.710;2024-01-30T03:53:23;11.30;99.90
25346;DHT22;13300;51.032;3.710;2024-01-30T03:55:49;11.30;99.90
25346;DHT22;13300;51.032;3.710;2024-01-30T03:58:15;11.30;99.90
25346;DHT22;13300;51.032;3.710;2024-01-30T04:00:40;11.40;99.90
25346;DHT22;13300;51.032;3.710;2024-01-30T04:03:06;11.30;99.90
25346;DHT22;13300;51.032;3.710;2024-01-30T04:05:32;11.30;99.90
25346;DHT22;13300;51.032;3.710;2024-01-30T04:07:58;11.20;99.90
25346;DHT22;13300;51.032;3.710;2024-01-30T04:10:24;11.20;99.90
25346;DHT22;13300;51.032;3.710;2024-01-30T04:12:50;11.20;99.90
25346;DHT22;13300;51.032;3.710;2024-01-30T04:15:17;11.20;99.90
25346;DHT22;13300;51.032;3.710;2024-01-30T04:17:43;11.20;99.90
25346;DHT22;13300;51.032;3.710;2024-01-30T04:20:16;11.20;99.90
25346;DHT22;13300;51.032;3.710;2024-01-30T04:22:43;11.20;99.90
25346;DHT22;13300;51.032;3.710;2024-01-30T04:25:10;11.20;99.90
25346;DHT22;13300;51.032;3.710;2024-01-30T04:27:35;11.20;99.90
25346;DHT22;13300;51.032;3.710;2024-01-30T04:30:01;11.10;99.90
25346;DHT22;13300;51.032;3.710;2024-01-30T04:32:27;11.20;99.90
25346;DHT22;13300;51.032;3.710;2024-01-30T04:34:52;11.30;99.90
25346;DHT22;13300;51.032;3.710;2024-01-30T04:37:18;11.30;99.90
25346;DHT22;13300;51.032;3.710;2024-01-30T04:39:44;11.30;99.90
25346;DHT22;13300;51.032;3.710;2024-01-30T04:42:09;11.30;99.90
25346;DHT22;13300;51.032;3.710;2024-01-30T04:44:35;11.30;99.90
25346;DHT22;13300;51.032;3.710;2024-01-30T04:47:01;11.30;99.90
25346;DHT22;13300;51.032;3.710;2024-01-30T04:49:27;11.30;99.90
25346;DHT22;13300;51.032;3.710;2024-01-30T04:51:54;11.30;99.90
25346;DHT22;13300;51.032;3.710;2024-01-30T04:54:20;11.30;99.90
25346;DHT22;13300;51.032;3.710;2024-01-30T04:56:46;11.30;99.90
25346;DHT22;13300;51.032;3.710;2024-01-30T04:59:12;11.30;99.90
25346;DHT22;13300;51.032;3.710;2024-01-30T05:01:37;11.30;99.90
25346;DHT22;13300;51.032;3.710;2024-01-30T05:04:03;11.30;99.90
25346;DHT22;13300;51.032;3.710;2024-01-30T05:06:29;11.20;99.90
25346;DHT22;13300;51.032;3.710;2024-01-30T05:08:55;11.20;99.90
25346;DHT22;13300;51.032;3.710;2024-01-30T05:11:21;11.20;99.90
25346;DHT22;13300;51.032;3.710;2024-01-30T05:13:47;11.20;99.90
25346;DHT22;13300;51.032;3.710;2024-01-30T05:16:13;11.20;99.90
25346;DHT22;13300;51.032;3.710;2024-01-30T05:18:38;11.20;99.90
25346;DHT22;13300;51.032;3.710;2024-01-30T05:21:05;11.20;99.90
25346;DHT22;13300;51.032;3.710;2024-01-30T05:23:31;11.20;99.90
25346;DHT22;13300;51.032;3.710;2024-01-30T05:25:57;11.30;99.90
25346;DHT22;13300;51.032;3.710;2024-01-30T05:28:22;11.30;99.90
25346;DHT22;13300;51.032;3.710;2024-01-30T05:30:48;11.20;99.90
25346;DHT22;13300;51.032;3.710;2024-01-30T05:33:14;11.20;99.90
25346;DHT22;13300;51.032;3.710;2024-01-30T05:35:40;11.20;99.90
25346;DHT22;13300;51.032;3.710;2024-01-30T05:38:05;11.30;99.90
25346;DHT22;13300;51.032;3.710;2024-01-30T05:40:31;11.30;99.90
25346;DHT22;13300;51.032;3.710;2024-01-30T05:42:57;11.30;99.90
25346;DHT22;13300;51.032;3.710;2024-01-30T05:45:28;11.40;99.90
25346;DHT22;13300;51.032;3.710;2024-01-30T05:47:53;11.50;99.90
25346;DHT22;13300;51.032;3.710;2024-01-30T05:50:20;11.50;99.90
25346;DHT22;13300;51.032;3.710;2024-01-30T05:52:45;11.50;99.90
25346;DHT22;13300;51.032;3.710;2024-01-30T05:55:12;11.50;99.90
25346;DHT22;13300;51.032;3.710;2024-01-30T05:57:40;11.40;99.90
25346;DHT22;13300;51.032;3.710;2024-01-30T06:00:07;11.40;99.90
25346;DHT22;13300;51.032;3.710;2024-01-30T06:02:34;11.40;99.90
25346;DHT22;13300;51.032;3.710;2024-01-30T06:04:59;11.50;99.90
25346;DHT22;13300;51.032;3.710;2024-01-30T06:07:25;11.60;99.90
25346;DHT22;13300;51.032;3.710;2024-01-30T06:09:51;11.60;99.90
25346;DHT22;13300;51.032;3.710;2024-01-30T06:12:16;11.60;99.90
25346;DHT22;13300;51.032;3.710;2024-01-30T06:14:42;11.70;99.90
25346;DHT22;13300;51.032;3.710;2024-01-30T06:17:08;11.70;99.90
25346;DHT22;13300;51.032;3.710;2024-01-30T06:19:35;11.70;99.90
25346;DHT22;13300;51.032;3.710;2024-01-30T06:22:00;11.70;99.90
25346;DHT22;13300;51.032;3.710;2024-01-30T06:24:26;11.60;99.90
25346;DHT22;13300;51.032;3.710;2024-01-30T06:26:53;11.60;99.90
25346;DHT22;13300;51.032;3.710;2024-01-30T06:29:19;11.60;99.90
25346;DHT22;13300;51.032;3.710;2024-01-30T06:31:44;11.60;99.90
25346;DHT22;13300;51.032;3.710;2024-01-30T06:34:10;11.50;99.90
25346;DHT22;13300;51.032;3.710;2024-01-30T06:36:37;11.60;99.90
25346;DHT22;13300;51.032;3.710;2024-01-30T06:39:03;11.80;99.90
25346;DHT22;13300;51.032;3.710;2024-01-30T06:41:29;11.90;99.90
25346;DHT22;13300;51.032;3.710;2024-01-30T06:43:56;12.10;99.90
25346;DHT22;13300;51.032;3.710;2024-01-30T06:46:21;12.10;99.90
25346;DHT22;13300;51.032;3.710;2024-01-30T06:48:47;12.10;99.90
25346;DHT22;13300;51.032;3.710;2024-01-30T06:51:13;12.40;99.90
25346;DHT22;13300;51.032;3.710;2024-01-30T06:53:39;12.30;99.90
25346;DHT22;13300;51.032;3.710;2024-01-30T06:56:05;12.50;99.90
25346;DHT22;13300;51.032;3.710;2024-01-30T06:58:31;12.50;99.90
25346;DHT22;13300;51.032;3.710;2024-01-30T07:01:00;12.50;99.90
25346;DHT22;13300;51.032;3.710;2024-01-30T07:03:26;12.60;99.90
25346;DHT22;13300;51.032;3.710;2024-01-30T07:05:52;12.70;99.90
25346;DHT22;13300;51.032;3.710;2024-01-30T07:08:17;12.70;99.90
25346;DHT22;13300;51.032;3.710;2024-01-30T07:10:46;12.40;99.90
25346;DHT22;13300;51.032;3.710;2024-01-30T07:13:12;12.30;99.90
25346;DHT22;13300;51.032;3.710;2024-01-30T07:15:38;12.30;99.90
25346;DHT22;13300;51.032;3.710;2024-01-30T07:18:05;12.20;99.90
25346;DHT22;13300;51.032;3.710;2024-01-30T07:20:31;12.10;99.90
25346;DHT22;13300;51.032;3.710;2024-01-30T07:22:58;12.00;99.90
25346;DHT22;13300;51.032;3.710;2024-01-30T07:25:24;12.00;99.90
25346;DHT22;13300;51.032;3.710;2024-01-30T07:27:53;11.90;99.90
25346;DHT22;13300;51.032;3.710;2024-01-30T07:30:19;11.90;99.90
25346;DHT22;13300;51.032;3.710;2024-01-30T07:32:46;11.90;99.90
25346;DHT22;13300;51.032;3.710;2024-01-30T07:35:13;11.80;99.90
25346;DHT22;13300;51.032;3.710;2024-01-30T07:37:39;11.80;99.90
25346;DHT22;13300;51.032;3.710;2024-01-30T07:40:06;11.90;99.90
25346;DHT22;13300;51.032;3.710;2024-01-30T07:42:32;11.90;99.90
25346;DHT22;13300;51.032;3.710;2024-01-30T07:44:59;12.00;99.90
25346;DHT22;13300;51.032;3.710;2024-01-30T07:47:25;12.10;99.90
25346;DHT22;13300;51.032;3.710;2024-01-30T07:49:51;12.10;99.90
25346;DHT22;13300;51.032;3.710;2024-01-30T07:52:18;12.10;99.90
25346;DHT22;13300;51.032;3.710;2024-01-30T07:54:50;12.10;99.90
25346;DHT22;13300;51.032;3.710;2024-01-30T07:57:16;12.00;99.90
25346;DHT22;13300;51.032;3.710;2024-01-30T07:59:43;12.00;99.90
25346;DHT22;13300;51.032;3.710;2024-01-30T08:02:12;12.00;99.90
25346;DHT22;13300;51.032;3.710;2024-01-30T08:04:38;12.10;99.90
25346;DHT22;13300;51.032;3.710;2024-01-30T08:07:04;12.10;99.90
25346;DHT22;13300;51.032;3.710;2024-01-30T08:09:30;12.00;99.90
25346;DHT22;13300;51.032;3.710;2024-01-30T08:11:56;12.00;99.90
25346;DHT22;13300;51.032;3.710;2024-01-30T08:14:21;11.90;99.90
25346;DHT22;13300;51.032;3.710;2024-01-30T08:16:47;11.90;99.90
25346;DHT22;13300;51.032;3.710;2024-01-30T08:19:14;11.90;99.90
25346;DHT22;13300;51.032;3.710;2024-01-30T08:21:40;11.80;99.90
25346;DHT22;13300;51.032;3.710;2024-01-30T08:24:07;11.80;99.90
25346;DHT22;13300;51.032;3.710;2024-01-30T08:26:33;11.80;99.90
25346;DHT22;13300;51.032;3.710;2024-01-30T08:28:59;11.90;99.90
25346;DHT22;13300;51.032;3.710;2024-01-30T08:31:25;11.90;99.90
25346;DHT22;13300;51.032;3.710;2024-01-30T08:33:50;12.00;99.90
25346;DHT22;13300;51.032;3.710;2024-01-30T08:36:17;12.00;99.90
25346;DHT22;13300;51.032;3.710;2024-01-30T08:38:43;12.00;99.90
25346;DHT22;13300;51.032;3.710;2024-01-30T08:41:09;12.00;99.90
25346;DHT22;13300;51.032;3.710;2024-01-30T08:43:35;12.10;99.90
25346;DHT22;13300;51.032;3.710;2024-01-30T08:46:01;12.00;99.90
25346;DHT22;13300;51.032;3.710;2024-01-30T08:48:27;12.00;99.90
25346;DHT22;13300;51.032;3.710;2024-01-30T08:50:53;12.10;99.90
25346;DHT22;13300;51.032;3.710;2024-01-30T08:53:19;12.00;99.90
25346;DHT22;13300;51.032;3.710;2024-01-30T08:55:45;12.00;99.90
25346;DHT22;13300;51.032;3.710;2024-01-30T08:58:10;12.10;99.90
25346;DHT22;13300;51.032;3.710;2024-01-30T09:00:36;12.20;99.90
25346;DHT22;13300;51.032;3.710;2024-01-30T09:03:03;12.10;99.90
25346;DHT22;13300;51.032;3.710;2024-01-30T09:05:28;12.10;99.90
25346;DHT22;13300;51.032;3.710;2024-01-30T09:07:54;12.10;99.90
25346;DHT22;13300;51.032;3.710;2024-01-30T09:10:20;12.20;99.90
25346;DHT22;13300;51.032;3.710;2024-01-30T09:12:46;12.40;99.90
25346;DHT22;13300;51.032;3.710;2024-01-30T09:15:12;12.40;99.90
25346;DHT22;13300;51.032;3.710;2024-01-30T09:17:38;12.40;99.90
25346;DHT22;13300;51.032;3.710;2024-01-30T09:20:04;12.40;99.90
25346;DHT22;13300;51.032;3.710;2024-01-30T09:22:30;12.40;99.90
25346;DHT22;13300;51.032;3.710;2024-01-30T09:24:57;12.50;99.90
25346;DHT22;13300;51.032;3.710;2024-01-30T09:27:23;12.50;99.90
25346;DHT22;13300;51.032;3.710;2024-01-30T09:29:49;12.50;99.90
25346;DHT22;13300;51.032;3.710;2024-01-30T09:32:14;12.40;99.90
25346;DHT22;13300;51.032;3.710;2024-01-30T09:34:40;12.50;99.90
25346;DHT22;13300;51.032;3.710;2024-01-30T09:37:07;12.50;99.90
25346;DHT22;13300;51.032;3.710;2024-01-30T09:39:32;12.50;99.90
25346;DHT22;13300;51.032;3.710;2024-01-30T09:42:22;12.40;99.90
25346;DHT22;13300;51.032;3.710;2024-01-30T09:44:53;12.40;99.90
25346;DHT22;13300;51.032;3.710;2024-01-30T09:47:19;12.40;99.90
25346;DHT22;13300;51.032;3.710;2024-01-30T09:49:45;12.50;99.90
25346;DHT22;13300;51.032;3.710;2024-01-30T09:52:11;12.40;99.90
25346;DHT22;13300;51.032;3.710;2024-01-30T09:54:38;12.30;99.90
25346;DHT22;13300;51.032;3.710;2024-01-30T09:57:04;12.20;99.90
25346;DHT22;13300;51.032;3.710;2024-01-30T09:59:31;12.10;99.90
25346;DHT22;13300;51.032;3.710;2024-01-30T10:01:57;12.10;99.90
25346;DHT22;13300;51.032;3.710;2024-01-30T10:04:23;12.00;99.90
25346;DHT22;13300;51.032;3.710;2024-01-30T10:06:49;12.00;99.90
25346;DHT22;13300;51.032;3.710;2024-01-30T10:09:16;12.00;99.90
25346;DHT22;13300;51.032;3.710;2024-01-30T10:11:41;11.80;99.90
25346;DHT22;13300;51.032;3.710;2024-01-30T10:14:07;11.70;99.90
25346;DHT22;13300;51.032;3.710;2024-01-30T10:16:34;11.80;99.90
25346;DHT22;13300;51.032;3.710;2024-01-30T10:19:00;11.80;99.90
25346;DHT22;13300;51.032;3.710;2024-01-30T10:21:26;11.90;99.90
25346;DHT22;13300;51.032;3.710;2024-01-30T10:23:52;12.20;99.90
25346;DHT22;13300;51.032;3.710;2024-01-30T10:26:18;12.20;99.90
25346;DHT22;13300;51.032;3.710;2024-01-30T10:28:44;12.20;99.90
25346;DHT22;13300;51.032;3.710;2024-01-30T10:31:10;12.20;99.90
25346;DHT22;13300;51.032;3.710;2024-01-30T10:33:36;12.50;99.90
25346;DHT22;13300;51.032;3.710;2024-01-30T10:36:03;12.60;99.90
25346;DHT22;13300;51.032;3.710;2024-01-30T10:38:30;12.60;99.90
25346;DHT22;13300;51.032;3.710;2024-01-30T10:41:01;12.60;99.90
25346;DHT22;13300;51.032;3.710;2024-01-30T10:43:41;12.70;99.90
25346;DHT22;13300;51.032;3.710;2024-01-30T10:46:30;12.60;99.90
25346;DHT22;13300;51.032;3.710;2024-01-30T10:48:58;12.40;99.90
25346;DHT22;13300;51.032;3.710;2024-01-30T10:51:27;12.20;99.90
25346;DHT22;13300;51.032;3.710;2024-01-30T10:53:53;12.40;99.90
25346;DHT22;13300;51.032;3.710;2024-01-30T10:56:23;12.50;99.90
25346;DHT22;13300;51.032;3.710;2024-01-30T10:58:52;12.60;99.90
25346;DHT22;13300;51.032;3.710;2024-01-30T11:01:22;12.60;99.90
25346;DHT22;13300;51.032;3.710;2024-01-30T11:03:52;12.40;99.90
25346;DHT22;13300;51.032;3.710;2024-01-30T11:06:18;12.20;99.90
25346;DHT22;13300;51.032;3.710;2024-01-30T11:08:46;12.20;99.90
25346;DHT22;13300;51.032;3.710;2024-01-30T11:11:12;12.30;99.90
25346;DHT22;13300;51.032;3.710;2024-01-30T11:13:38;12.40;99.90
25346;DHT22;13300;51.032;3.710;2024-01-30T11:16:04;12.50;99.90
25346;DHT22;13300;51.032;3.710;2024-01-30T11:18:35;12.50;99.90
25346;DHT22;13300;51.032;3.710;2024-01-30T11:21:04;12.40;99.90
25346;DHT22;13300;51.032;3.710;2024-01-30T11:23:33;12.20;99.90
25346;DHT22;13300;51.032;3.710;2024-01-30T11:25:59;12.40;99.90
25346;DHT22;13300;51.032;3.710;2024-01-30T11:28:32;12.60;99.90
25346;DHT22;13300;51.032;3.710;2024-01-30T11:31:05;12.80;99.90
25346;DHT22;13300;51.032;3.710;2024-01-30T11:33:32;13.10;99.90
25346;DHT22;13300;51.032;3.710;2024-01-30T11:36:00;13.20;99.90
25346;DHT22;13300;51.032;3.710;2024-01-30T11:38:27;13.10;99.90
25346;DHT22;13300;51.032;3.710;2024-01-30T11:40:54;13.00;99.90
25346;DHT22;13300;51.032;3.710;2024-01-30T11:43:20;12.90;99.90
25346;DHT22;13300;51.032;3.710;2024-01-30T11:45:46;12.80;99.90
25346;DHT22;13300;51.032;3.710;2024-01-30T11:48:12;12.70;99.90
25346;DHT22;13300;51.032;3.710;2024-01-30T11:50:39;12.50;99.90
25346;DHT22;13300;51.032;3.710;2024-01-30T11:53:06;12.40;99.90
25346;DHT22;13300;51.032;3.710;2024-01-30T11:55:32;12.30;99.90
25346;DHT22;13300;51.032;3.710;2024-01-30T11:57:58;12.20;99.90
25346;DHT22;13300;51.032;3.710;2024-01-30T12:00:25;12.00;99.90
25346;DHT22;13300;51.032;3.710;2024-01-30T12:02:52;12.00;99.90
25346;DHT22;13300;51.032;3.710;2024-01-30T12:05:21;11.90;99.90
25346;DHT22;13300;51.032;3.710;2024-01-30T12:07:47;11.70;99.90
25346;DHT22;13300;51.032;3.710;2024-01-30T12:10:13;11.60;99.90
25346;DHT22;13300;51.032;3.710;2024-01-30T12:12:41;11.60;99.90
25346;DHT22;13300;51.032;3.710;2024-01-30T12:15:08;11.50;99.90
25346;DHT22;13300;51.032;3.710;2024-01-30T12:17:34;11.40;99.90
25346;DHT22;13300;51.032;3.710;2024-01-30T12:22:40;11.40;99.90
25346;DHT22;13300;51.032;3.710;2024-01-30T12:25:16;11.40;99.90
25346;DHT22;13300;51.032;3.710;2024-01-30T12:27:45;11.40;99.90
25346;DHT22;13300;51.032;3.710;2024-01-30T12:30:13;11.40;99.90
25346;DHT22;13300;51.032;3.710;2024-01-30T12:32:40;11.20;99.90
25346;DHT22;13300;51.032;3.710;2024-01-30T12:35:11;11.10;99.90
25346;DHT22;13300;51.032;3.710;2024-01-30T12:37:38;11.30;99.90
25346;DHT22;13300;51.032;3.710;2024-01-30T12:40:04;11.20;99.90
25346;DHT22;13300;51.032;3.710;2024-01-30T12:42:31;11.20;99.90
25346;DHT22;13300;51.032;3.710;2024-01-30T12:44:58;11.10;99.90
25346;DHT22;13300;51.032;3.710;2024-01-30T12:47:24;11.20;99.90
25346;DHT22;13300;51.032;3.710;2024-01-30T12:49:50;11.20;99.90
25346;DHT22;13300;51.032;3.710;2024-01-30T12:52:19;11.30;99.90
25346;DHT22;13300;51.032;3.710;2024-01-30T12:54:47;11.30;99.90
25346;DHT22;13300;51.032;3.710;2024-01-30T12:57:12;11.20;99.90
25346;DHT22;13300;51.032;3.710;2024-01-30T12:59:38;11.10;99.90
25346;DHT22;13300;51.032;3.710;2024-01-30T13:02:04;11.10;99.90
25346;DHT22;13300;51.032;3.710;2024-01-30T13:04:30;11.10;99.90
25346;DHT22;13300;51.032;3.710;2024-01-30T13:06:56;11.20;99.90
25346;DHT22;13300;51.032;3.710;2024-01-30T13:09:23;11.10;99.90
25346;DHT22;13300;51.032;3.710;2024-01-30T13:11:49;11.20;99.90
25346;DHT22;13300;51.032;3.710;2024-01-30T13:14:15;11.10;99.90
25346;DHT22;13300;51.032;3.710;2024-01-30T13:16:41;11.20;99.90
25346;DHT22;13300;51.032;3.710;2024-01-30T13:19:06;11.10;99.90
25346;DHT22;13300;51.032;3.710;2024-01-30T13:21:32;11.10;99.90
25346;DHT22;13300;51.032;3.710;2024-01-30T13:23:57;11.10;99.90
25346;DHT22;13300;51.032;3.710;2024-01-30T13:26:23;11.10;99.90
25346;DHT22;13300;51.032;3.710;2024-01-30T13:28:49;11.10;99.90
25346;DHT22;13300;51.032;3.710;2024-01-30T13:31:15;11.10;99.90
25346;DHT22;13300;51.032;3.710;2024-01-30T13:33:41;11.10;99.90
25346;DHT22;13300;51.032;3.710;2024-01-30T13:36:11;11.10;99.90
25346;DHT22;13300;51.032;3.710;2024-01-30T13:38:37;11.20;99.90
25346;DHT22;13300;51.032;3.710;2024-01-30T13:41:04;11.10;99.90
25346;DHT22;13300;51.032;3.710;2024-01-30T13:43:30;11.20;99.90
25346;DHT22;13300;51.032;3.710;2024-01-30T13:45:56;11.20;99.90
25346;DHT22;13300;51.032;3.710;2024-01-30T13:48:22;11.20;99.90
25346;DHT22;13300;51.032;3.710;2024-01-30T13:50:48;11.20;99.90
25346;DHT22;13300;51.032;3.710;2024-01-30T13:53:14;11.20;99.90
25346;DHT22;13300;51.032;3.710;2024-01-30T13:55:40;11.20;99.90
25346;DHT22;13300;51.032;3.710;2024-01-30T13:58:06;11.30;99.90
25346;DHT22;13300;51.032;3.710;2024-01-30T14:00:32;11.20;99.90
25346;DHT22;13300;51.032;3.710;2024-01-30T14:02:59;11.20;99.90
25346;DHT22;13300;51.032;3.710;2024-01-30T14:05:25;11.10;99.90
25346;DHT22;13300;51.032;3.710;2024-01-30T14:07:52;11.10;99.90
25346;DHT22;13300;51.032;3.710;2024-01-30T14:10:18;11.10;99.90
25346;DHT22;13300;51.032;3.710;2024-01-30T14:12:44;11.10;99.90
25346;DHT22;13300;51.032;3.710;2024-01-30T14:15:10;11.00;99.90
25346;DHT22;13300;51.032;3.710;2024-01-30T14:17:38;10.90;99.90
25346;DHT22;13300;51.032;3.710;2024-01-30T14:20:04;10.90;99.90
25346;DHT22;13300;51.032;3.710;2024-01-30T14:22:31;10.90;99.90
25346;DHT22;13300;51.032;3.710;2024-01-30T14:24:56;10.90;99.90
25346;DHT22;13300;51.032;3.710;2024-01-30T14:27:22;11.00;99.90
25346;DHT22;13300;51.032;3.710;2024-01-30T14:29:48;10.90;99.90
25346;DHT22;13300;51.032;3.710;2024-01-30T14:32:14;10.90;99.90
25346;DHT22;13300;51.032;3.710;2024-01-30T14:34:40;10.90;99.90
25346;DHT22;13300;51.032;3.710;2024-01-30T14:37:07;10.60;99.90
25346;DHT22;13300;51.032;3.710;2024-01-30T14:39:33;10.50;99.90
25346;DHT22;13300;51.032;3.710;2024-01-30T14:41:59;10.40;99.90
25346;DHT22;13300;51.032;3.710;2024-01-30T14:44:25;10.30;99.90
25346;DHT22;13300;51.032;3.710;2024-01-30T14:46:51;10.20;99.90
25346;DHT22;13300;51.032;3.710;2024-01-30T14:49:17;10.30;99.90
25346;DHT22;13300;51.032;3.710;2024-01-30T14:51:43;10.30;99.90
25346;DHT22;13300;51.032;3.710;2024-01-30T14:54:09;10.30;99.90
25346;DHT22;13300;51.032;3.710;2024-01-30T14:56:34;10.20;99.90
25346;DHT22;13300;51.032;3.710;2024-01-30T14:59:01;10.20;99.90
25346;DHT22;13300;51.032;3.710;2024-01-30T15:01:26;10.30;99.90
25346;DHT22;13300;51.032;3.710;2024-01-30T15:03:52;10.30;99.90
25346;DHT22;13300;51.032;3.710;2024-01-30T15:06:18;10.30;99.90
25346;DHT22;13300;51.032;3.710;2024-01-30T15:08:44;10.30;99.90
25346;DHT22;13300;51.032;3.710;2024-01-30T15:11:10;10.30;99.90
25346;DHT22;13300;51.032;3.710;2024-01-30T15:13:39;10.20;99.90
25346;DHT22;13300;51.032;3.710;2024-01-30T15:16:05;10.10;99.90
25346;DHT22;13300;51.032;3.710;2024-01-30T15:18:31;10.00;99.90
25346;DHT22;13300;51.032;3.710;2024-01-30T15:20:56;10.00;99.90
25346;DHT22;13300;51.032;3.710;2024-01-30T15:23:22;10.00;99.90
25346;DHT22;13300;51.032;3.710;2024-01-30T15:25:48;10.00;99.90
25346;DHT22;13300;51.032;3.710;2024-01-30T15:28:14;10.00;99.90